Aérodrome :
LOGIN :

S'inscrire | Disclaimer

   EN    FR    IT 

 










Légende :    VFR   VFR Marginal   IFR   IFR Intensif   IFR Très Intensif
Visi : 
Plafond : 
>= 8 km
>= 3000ft
5 à 8 km
1000 à 3000 ft
1500m à 5 km
500 à 1000 ft
800 à 1500m
200 à 500 ft
< 800m
< 200 ft
Symboles :   Orages  Brouillard  Fortes neiges  Fortes précipitations  Vent > 20 kt
SIGMETs :   Divers  Orages  Givrage  Turbulence  Onde Orograph.  Cendres Volcan.






- Altitude de l'aérodrome : 137 ft


LIPS - Istrana AFB Treviso

DERNIER METAR :
  • 270155Z /////KT 0300 FG VV/// 03/03 Q1019 RMK VIS MIN 0300 WIND THR26 00000KT WIND THR08 00000KT RED

METARs EXPIRÉS :
  • 270055Z /////KT 0200 FG VV001 03/03 Q1019 RMK VIS MIN 0200 WIND THR26 00000KT WIND THR08 00000KT RED
  • 262355Z /////KT 0500 FG NSC 05/05 Q1020 RMK SKC VIS MIN 0500 WIND THR26 00000KT WIND THR08 00000KT YLO

TAF TAF LIPS
Valide du 27 à 00h jusqu'au 27 à 09h UTC


262300Z 2700/2709 VRB03KT 3000 BKN030
TEMPO 2700/2706 1500 BR BKN015
PROB40
TEMPO 2702/2706 0800 FG BKN005



MET'MAP, la Météo Aéronautique d'un coup d'oeil ! - Copyright ORBIFLY Décembre 2007 - Disclaimer

ORBIFLY MET'MAP TEAM :

Programmation & Développement : Alexandra Zaïnal
Sur une idée originale de : Baudouin d'Aumeries
Assistance à la programmation : Marc-Olivier Méhu
Soutien technique & logistique : Manuel Goepfert

Contact : metmap@orbifly.com




SOURCES & CREDITS :

   NOAA